Time;durP1;ratioP1;P1;durP2;ratioP2;P2;SDS_P1;SDS_P2;PMS_P1;PMS_P2;Temp;Humidity;BMP_temperature;BMP_pressure;BME280_temperature;BME280_humidity;BME280_pressure;Samples;Min_cycle;Max_cycle;Signal;HPM_P1;HPM_P2
2022/12/06 00:01:22;;;;;;;13.82;4.25;;;4.30;99.90;;;;;;5003048;28;20046;-49
2022/12/06 00:03:53;;;;;;;10.65;3.70;;;4.40;99.90;;;;;;4999094;28;20758;-48
2022/12/06 00:06:21;;;;;;;8.38;3.92;;;4.60;99.90;;;;;;5003732;28;20041;-48
2022/12/06 00:08:48;;;;;;;9.65;3.42;;;;;;;;;;4998410;28;20045;-47
2022/12/06 00:11:22;;;;;;;8.07;3.50;;;4.80;99.90;;;;;;5000086;28;20085;-48
2022/12/06 00:13:52;;;;;;;7.68;3.53;;;4.50;99.90;;;;;;4999855;28;20117;-47
2022/12/06 00:16:18;;;;;;;9.43;4.32;;;4.60;99.90;;;;;;5003970;28;20069;-46
2022/12/06 00:18:45;;;;;;;11.40;3.83;;;4.50;99.90;;;;;;5003420;28;20294;-52
2022/12/06 00:21:16;;;;;;;7.38;3.72;;;4.60;99.90;;;;;;5003847;28;20748;-48
2022/12/06 00:23:45;;;;;;;9.80;3.50;;;4.60;99.90;;;;;;5006874;28;20053;-47
2022/12/06 00:26:11;;;;;;;11.90;3.70;;;4.50;99.90;;;;;;5004620;28;20515;-48
2022/12/06 00:28:38;;;;;;;10.18;3.67;;;5.00;99.90;;;;;;5003568;28;20041;-50
2022/12/06 00:31:07;;;;;;;11.20;3.70;;;4.70;99.90;;;;;;5002345;28;20131;-48
2022/12/06 00:33:34;;;;;;;8.70;3.90;;;4.60;99.90;;;;;;5000715;28;20490;-47
2022/12/06 00:36:02;;;;;;;11.10;3.55;;;4.40;99.90;;;;;;5003164;28;20046;-47
2022/12/06 00:38:29;;;;;;;11.00;3.70;;;4.60;99.90;;;;;;5003698;28;20099;-47
2022/12/06 00:41:09;;;;;;;12.07;3.72;;;4.40;99.90;;;;;;5003827;28;20026;-48
2022/12/06 00:43:36;;;;;;;12.30;3.83;;;4.40;99.90;;;;;;5005556;28;20037;-47
2022/12/06 00:46:04;;;;;;;10.98;3.45;;;4.40;99.90;;;;;;5003007;28;20030;-49
2022/12/06 00:48:30;;;;;;;11.50;3.20;;;;;;;;;;5002516;28;20552;-47
2022/12/06 00:50:56;;;;;;;9.32;4.32;;;;;;;;;;5002935;28;20534;-46
2022/12/06 00:53:23;;;;;;;10.10;3.40;;;;;;;;;;5003307;28;20100;-48
2022/12/06 00:55:49;;;;;;;11.60;3.90;;;;;;;;;;5005718;28;20053;-49
2022/12/06 00:58:16;;;;;;;11.23;3.63;;;;;;;;;;5003940;28;20445;-46
2022/12/06 01:00:42;;;;;;;13.95;3.70;;;3.90;99.90;;;;;;4998764;28;20046;-48
2022/12/06 01:03:09;;;;;;;7.28;3.63;;;4.20;99.90;;;;;;5002991;28;20465;-49
2022/12/06 01:05:43;;;;;;;18.30;3.92;;;3.90;99.90;;;;;;4999310;28;20498;-47
2022/12/06 01:08:10;;;;;;;8.68;3.33;;;;;;;;;;4998719;28;20041;-47
2022/12/06 01:10:37;;;;;;;14.23;3.97;;;4.00;99.90;;;;;;5000029;28;20044;-49
2022/12/06 01:13:04;;;;;;;13.18;4.30;;;4.00;99.90;;;;;;5005922;28;20038;-47
2022/12/06 01:15:30;;;;;;;11.35;3.80;;;;;;;;;;5000442;28;21992;-48
2022/12/06 01:17:56;;;;;;;10.48;3.60;;;;;;;;;;5001294;28;20499;-46
2022/12/06 01:20:23;;;;;;;13.02;3.95;;;;;;;;;;5003490;28;20034;-48
2022/12/06 01:22:49;;;;;;;12.52;3.30;;;;;;;;;;5004832;28;20275;-47
2022/12/06 01:25:15;;;;;;;8.73;3.10;;;;;;;;;;5008208;28;20517;-46
2022/12/06 01:27:41;;;;;;;9.00;3.22;;;;;;;;;;5006647;28;20629;-48
2022/12/06 01:30:07;;;;;;;14.77;3.42;;;4.10;99.90;;;;;;5006111;28;20045;-46
2022/12/06 01:32:33;;;;;;;10.25;2.92;;;;;;;;;;5005126;28;20458;-46
2022/12/06 01:34:59;;;;;;;13.77;3.40;;;;;;;;;;5007938;28;20053;-51
2022/12/06 01:37:25;;;;;;;11.07;2.67;;;;;;;;;;5006114;28;20052;-48
2022/12/06 01:39:52;;;;;;;9.18;2.65;;;;;;;;;;5007601;28;20054;-48
2022/12/06 01:42:18;;;;;;;16.58;2.80;;;;;;;;;;5008080;28;20088;-46
2022/12/06 01:45:03;;;;;;;9.32;2.78;;;4.20;99.90;;;;;;5004357;28;20481;-50
2022/12/06 01:47:36;;;;;;;8.18;2.47;;;4.20;99.90;;;;;;5009531;28;20179;-46
2022/12/06 01:50:07;;;;;;;7.70;2.30;;;4.00;99.90;;;;;;5005510;28;20129;-47
2022/12/06 01:52:38;;;;;;;9.55;2.50;;;4.10;99.90;;;;;;5010221;28;20049;-46
2022/12/06 01:55:07;;;;;;;10.23;2.80;;;4.20;99.90;;;;;;5006229;28;20589;-47
2022/12/06 01:57:33;;;;;;;7.22;2.30;;;4.20;99.90;;;;;;5007680;28;20045;-47
2022/12/06 01:59:59;;;;;;;11.27;2.88;;;;;;;;;;5006233;28;20114;-48
2022/12/06 02:02:25;;;;;;;12.25;2.65;;;;;;;;;;5008268;28;20115;-47
2022/12/06 02:04:52;;;;;;;6.22;2.40;;;;;;;;;;5006027;28;20040;-47
2022/12/06 02:07:19;;;;;;;9.70;2.50;;;4.00;99.90;;;;;;5008474;28;20057;-47
2022/12/06 02:09:45;;;;;;;7.15;2.30;;;;;;;;;;5005925;28;20046;-48
2022/12/06 02:12:14;;;;;;;9.50;2.42;;;4.00;99.90;;;;;;5006708;28;20069;-50
2022/12/06 02:14:42;;;;;;;8.55;2.10;;;4.00;99.90;;;;;;5005850;28;20069;-47
2022/12/06 02:17:45;;;;;;;5.65;1.95;;;3.90;99.90;;;;;;5003107;28;20585;-49
2022/12/06 02:20:31;;;;;;;9.70;2.00;;;4.10;99.90;;;;;;5005131;28;20183;-46
2022/12/06 02:23:29;;;;;;;6.95;1.90;;;4.10;99.90;;;;;;5007303;28;20037;-49
2022/12/06 02:26:29;;;;;;;5.70;1.92;;;4.00;99.90;;;;;;5007455;28;20077;-47
2022/12/06 02:29:10;;;;;;;5.43;1.65;;;4.00;99.90;;;;;;5003189;28;20042;-50
2022/12/06 02:31:41;;;;;;;5.03;1.80;;;4.00;99.90;;;;;;5006599;28;20142;-49
2022/12/06 02:34:22;;;;;;;10.65;1.73;;;4.10;99.90;;;;;;5005070;28;20402;-51
2022/12/06 02:36:59;;;;;;;6.18;1.98;;;4.00;99.90;;;;;;5003227;28;20045;-47
2022/12/06 02:39:25;;;;;;;6.47;1.90;;;;;;;;;;5006768;28;20037;-47
2022/12/06 02:42:02;;;;;;;7.22;1.90;;;4.10;99.90;;;;;;4997569;28;20042;-50
2022/12/06 02:44:37;;;;;;;5.60;2.00;;;4.10;99.90;;;;;;5006585;28;20387;-47
2022/12/06 02:47:05;;;;;;;6.13;2.03;;;4.10;99.90;;;;;;5003419;28;20118;-47
2022/12/06 02:49:33;;;;;;;3.65;1.55;;;4.10;99.90;;;;;;5006605;28;20051;-48
2022/12/06 02:52:00;;;;;;;4.38;1.73;;;4.00;99.90;;;;;;5005121;28;20302;-49
2022/12/06 02:54:28;;;;;;;4.90;1.65;;;4.00;99.90;;;;;;5005507;28;20115;-47
2022/12/06 02:56:54;;;;;;;4.93;1.95;;;;;;;;;;5007016;28;20132;-51
2022/12/06 02:59:20;;;;;;;4.80;1.83;;;;;;;;;;5004413;28;20076;-47
2022/12/06 03:01:51;;;;;;;5.70;2.10;;;4.10;99.90;;;;;;4998256;28;20111;-46
2022/12/06 03:04:45;;;;;;;7.30;1.90;;;4.00;99.90;;;;;;5006256;28;20053;-48
2022/12/06 03:07:31;;;;;;;10.02;2.15;;;4.00;99.90;;;;;;5011153;28;20167;-47
2022/12/06 03:10:05;;;;;;;7.85;2.20;;;4.20;99.90;;;;;;5005907;28;20868;-51
2022/12/06 03:12:55;;;;;;;8.85;2.58;;;4.10;99.90;;;;;;5004343;28;20030;-47
2022/12/06 03:15:33;;;;;;;4.40;2.20;;;4.10;99.90;;;;;;5004710;28;20057;-49
2022/12/06 03:18:25;;;;;;;7.32;2.90;;;4.00;99.90;;;;;;5007171;28;20426;-47
2022/12/06 03:20:58;;;;;;;10.73;3.45;;;4.10;99.90;;;;;;5004754;28;20041;-49
2022/12/06 03:23:29;;;;;;;6.30;2.40;;;4.00;99.90;;;;;;5001304;28;20040;-47
2022/12/06 03:25:59;;;;;;;8.38;2.22;;;4.10;99.90;;;;;;5002939;28;20037;-48
2022/12/06 03:28:26;;;;;;;5.28;2.08;;;4.00;99.90;;;;;;5007878;28;20045;-47
2022/12/06 03:31:01;;;;;;;5.75;2.13;;;4.10;99.90;;;;;;5003127;28;20430;-48
2022/12/06 03:33:28;;;;;;;5.10;2.10;;;3.90;99.90;;;;;;5007732;28;20046;-47
2022/12/06 03:35:57;;;;;;;6.30;2.13;;;3.80;99.90;;;;;;5002641;28;20042;-48
2022/12/06 03:38:32;;;;;;;6.90;2.40;;;3.80;99.90;;;;;;4997789;28;20045;-47
2022/12/06 03:41:02;;;;;;;10.38;2.40;;;3.80;99.90;;;;;;5004988;28;20045;-50
2022/12/06 03:43:28;;;;;;;8.52;3.50;;;;;;;;;;5005604;28;20049;-52
2022/12/06 03:46:21;;;;;;;5.78;2.40;;;3.60;99.90;;;;;;5005364;28;20132;-47
2022/12/06 03:48:57;;;;;;;6.30;2.63;;;3.60;99.90;;;;;;4995338;28;20041;-47
2022/12/06 03:51:29;;;;;;;7.03;2.15;;;3.50;99.90;;;;;;5001200;28;20857;-48
2022/12/06 03:53:58;;;;;;;6.43;2.60;;;3.30;99.90;;;;;;5002763;28;20046;-47
2022/12/06 03:56:25;;;;;;;6.10;2.05;;;3.60;99.90;;;;;;5004477;28;20045;-48
2022/12/06 03:58:51;;;;;;;3.60;1.83;;;3.30;99.90;;;;;;5003417;28;20350;-49
2022/12/06 04:01:17;;;;;;;7.22;2.10;;;;;;;;;;5001775;28;20044;-47
2022/12/06 04:03:43;;;;;;;10.18;2.65;;;;;;;;;;5000997;28;20317;-48
2022/12/06 04:06:10;;;;;;;9.07;2.20;;;3.20;99.90;;;;;;5004511;28;20387;-47
2022/12/06 04:08:36;;;;;;;6.63;2.50;;;3.10;99.90;;;;;;5003171;28;20642;-48
2022/12/06 04:11:03;;;;;;;8.45;2.28;;;3.00;99.90;;;;;;5008052;28;20327;-47
2022/12/06 04:13:29;;;;;;;10.25;3.25;;;;;;;;;;5007934;28;20112;-49
2022/12/06 04:15:58;;;;;;;9.07;2.40;;;3.00;99.90;;;;;;5007175;28;20052;-47
2022/12/06 04:18:24;;;;;;;5.97;2.10;;;;;;;;;;5010829;28;20037;-48
2022/12/06 04:23:46;;;;;;;4.47;2.35;;;2.90;99.90;;;;;;5002738;28;20055;-47
2022/12/06 04:26:16;;;;;;;6.78;2.17;;;3.00;99.90;;;;;;5004700;28;20577;-47
2022/12/06 04:39:41;;;;;;;7.72;2.30;;;;;;;;;;5005723;28;20055;-46
2022/12/06 04:44:53;;;;;;;7.10;2.83;;;;;;;;;;4999197;28;20188;-48
2022/12/06 04:47:19;;;;;;;7.05;2.78;;;;;;;;;;5006354;28;20510;-47
2022/12/06 04:49:45;;;;;;;10.27;3.28;;;;;;;;;;5004402;28;20041;-49
2022/12/06 04:52:11;;;;;;;7.22;3.20;;;2.90;99.90;;;;;;5002106;28;20046;-49
2022/12/06 04:54:37;;;;;;;8.02;3.75;;;;;;;;;;5004345;28;20046;-47
2022/12/06 04:57:09;;;;;;;8.07;2.83;;;;;;;;;;5005354;28;20690;-47
2022/12/06 04:59:39;;;;;;;6.15;2.97;;;3.00;99.90;;;;;;5010267;28;20643;-47
2022/12/06 05:02:06;;;;;;;10.90;4.15;;;3.10;99.90;;;;;;5006650;28;20038;-48
2022/12/06 05:04:33;;;;;;;8.25;3.70;;;;;;;;;;5007519;28;20041;-47
2022/12/06 05:06:59;;;;;;;8.88;3.47;;;;;;;;;;5005753;28;20052;-48
2022/12/06 05:09:25;;;;;;;9.90;3.97;;;;;;;;;;5003832;28;20041;-47
2022/12/06 05:11:51;;;;;;;10.18;3.72;;;;;;;;;;5008393;28;20041;-47
2022/12/06 05:14:17;;;;;;;10.90;4.65;;;;;;;;;;5006428;28;20049;-50
2022/12/06 05:16:43;;;;;;;9.40;3.83;;;;;;;;;;5007947;28;20158;-52
2022/12/06 05:19:10;;;;;;;5.85;3.33;;;3.00;99.90;;;;;;5005471;28;20044;-49
2022/12/06 05:21:37;;;;;;;9.15;3.50;;;;;;;;;;5006885;28;20036;-47
2022/12/06 05:24:03;;;;;;;10.68;3.92;;;;;;;;;;5005966;28;20156;-46
2022/12/06 05:26:29;;;;;;;9.35;3.63;;;;;;;;;;5006652;28;20566;-48
2022/12/06 05:28:55;;;;;;;6.50;3.33;;;;;;;;;;5010505;28;20091;-47
2022/12/06 05:31:21;;;;;;;10.32;3.88;;;;;;;;;;5006791;28;20038;-46
2022/12/06 05:33:48;;;;;;;6.80;3.10;;;;;;;;;;5008833;28;20042;-46
2022/12/06 05:36:20;;;;;;;7.72;4.22;;;2.80;99.90;;;;;;4997149;28;20392;-47
2022/12/06 05:38:46;;;;;;;8.02;3.50;;;;;;;;;;5004597;28;20045;-47
2022/12/06 05:41:12;;;;;;;6.75;3.70;;;;;;;;;;5006281;28;20900;-48
2022/12/06 05:43:38;;;;;;;9.30;3.50;;;;;;;;;;5006624;28;20046;-47
2022/12/06 05:46:04;;;;;;;11.45;3.80;;;2.80;99.90;;;;;;5006314;28;20041;-49
2022/12/06 05:48:31;;;;;;;10.77;3.97;;;;;;;;;;5009184;28;20042;-46
2022/12/06 05:50:57;;;;;;;9.95;3.60;;;;;;;;;;5006529;28;20051;-47
2022/12/06 05:53:23;;;;;;;10.65;4.30;;;;;;;;;;5006373;28;20049;-47
2022/12/06 05:55:49;;;;;;;7.68;3.65;;;;;;;;;;5007757;28;20041;-47
2022/12/06 05:58:16;;;;;;;10.02;3.95;;;;;;;;;;5007298;28;20342;-47
2022/12/06 06:00:46;;;;;;;8.80;3.22;;;2.60;99.90;;;;;;5006937;28;20045;-47
2022/12/06 06:03:12;;;;;;;48.92;4.18;;;;;;;;;;5005230;28;20488;-47
2022/12/06 06:05:48;;;;;;;6.85;3.20;;;2.30;99.90;;;;;;5003300;28;20522;-47
2022/12/06 06:08:15;;;;;;;7.03;2.97;;;;;;;;;;5004300;28;20053;-46
2022/12/06 06:10:41;;;;;;;5.30;2.80;;;;;;;;;;5004119;28;20042;-46
2022/12/06 06:13:07;;;;;;;55.53;4.78;;;;;;;;;;5010548;28;20726;-48
2022/12/06 06:15:33;;;;;;;10.20;3.60;;;;;;;;;;5000040;28;20037;-49
2022/12/06 06:17:59;;;;;;;12.00;3.22;;;;;;;;;;5005845;28;20072;-48
2022/12/06 06:20:25;;;;;;;9.88;3.72;;;;;;;;;;5008648;28;20041;-46
2022/12/06 06:22:53;;;;;;;11.68;3.38;;;;;;;;;;5002636;28;20355;-47
2022/12/06 06:25:19;;;;;;;7.22;3.30;;;;;;;;;;5009485;28;20045;-47
2022/12/06 06:27:45;;;;;;;5.38;2.88;;;;;;;;;;4998838;28;20069;-47
2022/12/06 06:30:12;;;;;;;15.63;3.70;;;2.00;99.90;;;;;;5007005;28;20041;-46
2022/12/06 06:32:38;;;;;;;13.07;3.63;;;;;;;;;;5005089;28;20601;-51
2022/12/06 06:35:05;;;;;;;10.43;2.95;;;2.00;99.90;;;;;;5007148;28;20132;-46
2022/12/06 06:37:31;;;;;;;112.20;4.18;;;;;;;;;;5003607;28;20041;-50
2022/12/06 06:39:58;;;;;;;89.07;3.33;;;;;;;;;;5006952;28;20037;-46
2022/12/06 06:42:24;;;;;;;30.20;2.10;;;;;;;;;;5006549;28;20195;-46
2022/12/06 06:44:53;;;;;;;80.47;3.25;;;;;;;;;;5003564;28;20112;-46
2022/12/06 06:47:19;;;;;;;72.25;2.67;;;;;;;;;;5003645;28;20052;-47
2022/12/06 06:49:45;;;;;;;55.10;2.72;;;;;;;;;;5006807;28;20073;-47
2022/12/06 06:52:11;;;;;;;67.18;3.78;;;;;;;;;;5005532;28;20037;-47
2022/12/06 06:54:37;;;;;;;198.23;5.68;;;;;;;;;;5008527;28;20408;-46
2022/12/06 06:57:03;;;;;;;128.52;4.57;;;;;;;;;;5005849;28;20140;-46
2022/12/06 06:59:29;;;;;;;90.00;3.88;;;;;;;;;;5007943;28;20821;-46
2022/12/06 07:01:55;;;;;;;106.78;3.80;;;;;;;;;;5004619;28;20133;-47
2022/12/06 07:04:21;;;;;;;26.55;2.40;;;;;;;;;;5004154;28;20045;-46
2022/12/06 07:06:48;;;;;;;7.60;2.22;;;;;;;;;;5005402;28;20049;-46
2022/12/06 07:09:14;;;;;;;8.57;2.22;;;;;;;;;;5001559;28;20069;-46
2022/12/06 07:11:40;;;;;;;5.95;2.08;;;;;;;;;;5007260;28;20041;-48
2022/12/06 07:14:06;;;;;;;14.68;2.38;;;;;;;;;;5007049;28;20065;-47
2022/12/06 07:16:32;;;;;;;4.15;1.95;;;;;;;;;;5003912;28;20466;-47
2022/12/06 07:18:58;;;;;;;8.35;3.83;;;;;;;;;;5004524;28;20581;-47
2022/12/06 07:21:24;;;;;;;7.68;2.83;;;;;;;;;;5003725;28;20501;-49
2022/12/06 07:23:50;;;;;;;44.65;5.82;;;;;;;;;;5004452;28;20041;-46
2022/12/06 07:26:23;;;;;;;6.90;3.10;;;1.30;99.90;;;;;;5003631;28;20041;-46
2022/12/06 07:28:49;;;;;;;;;;;1.50;99.90;;;;;;5006559;28;20475;-45
2022/12/06 07:31:25;;;;;;;7.30;2.88;;;1.10;99.90;;;;;;5006264;28;19928;-48
2022/12/06 07:33:56;;;;;;;9.95;2.70;;;1.40;99.90;;;;;;5003705;28;20510;-47
2022/12/06 07:36:23;;;;;;;11.60;3.88;;;1.20;99.90;;;;;;5007762;28;20551;-46
2022/12/06 07:38:51;;;;;;;8.13;3.53;;;1.40;99.90;;;;;;5007124;28;20124;-46
2022/12/06 07:46:49;;;;;;;13.57;4.03;;;;;;;;;;5007315;28;20126;-47
2022/12/06 07:49:17;;;;;;;12.45;4.18;;;1.50;99.90;;;;;;5008226;28;20045;-48
2022/12/06 07:51:44;;;;;;;8.68;3.85;;;1.50;99.90;;;;;;4999420;28;20141;-46
2022/12/06 07:54:10;;;;;;;11.80;4.50;;;;;;;;;;4999676;28;20075;-47
2022/12/06 07:56:36;;;;;;;8.35;3.90;;;;;;;;;;5005118;28;20048;-46
2022/12/06 07:59:03;;;;;;;8.55;3.95;;;;;;;;;;5004581;28;20728;-49
2022/12/06 08:01:29;;;;;;;14.23;3.53;;;;;;;;;;5003178;28;20144;-49
2022/12/06 08:03:55;;;;;;;9.25;3.22;;;;;;;;;;5007992;28;20731;-47
2022/12/06 08:06:22;;;;;;;10.65;3.53;;;2.00;99.90;;;;;;5002862;28;20077;-46
2022/12/06 08:08:48;;;;;;;7.45;3.30;;;;;;;;;;5005744;28;20038;-47
2022/12/06 08:11:14;;;;;;;10.48;3.35;;;;;;;;;;4996737;28;20133;-46
2022/12/06 08:13:40;;;;;;;9.05;3.25;;;;;;;;;;4998185;28;20049;-50
2022/12/06 08:16:08;;;;;;;12.88;3.53;;;1.90;99.90;;;;;;5004740;28;20125;-49
2022/12/06 08:18:36;;;;;;;10.40;3.72;;;;;;;;;;4999657;28;20092;-48
2022/12/06 08:21:02;;;;;;;10.57;3.30;;;;;;;;;;5004239;28;20049;-50
2022/12/06 08:23:28;;;;;;;8.88;3.63;;;;;;;;;;5001769;28;20486;-47
2022/12/06 08:25:58;;;;;;;8.93;3.40;;;2.10;99.90;;;;;;5002434;28;20656;-46
2022/12/06 08:28:25;;;;;;;8.95;4.00;;;2.20;99.90;;;;;;5000277;28;21090;-47
2022/12/06 08:30:51;;;;;;;6.60;3.20;;;;;;;;;;5005535;28;20042;-48
2022/12/06 08:33:17;;;;;;;7.32;3.38;;;;;;;;;;5004351;28;20088;-46
2022/12/06 08:35:43;;;;;;;14.63;5.10;;;;;;;;;;4997763;28;20033;-46
2022/12/06 08:38:09;;;;;;;10.85;3.65;;;;;;;;;;4996332;28;20042;-48
2022/12/06 08:40:35;;;;;;;9.98;3.70;;;;;;;;;;5002016;28;20069;-48
2022/12/06 08:43:01;;;;;;;9.27;3.53;;;;;;;;;;5004722;28;20037;-47
2022/12/06 08:45:27;;;;;;;10.35;4.70;;;;;;;;;;5005308;28;20412;-49
2022/12/06 08:47:53;;;;;;;13.55;4.72;;;;;;;;;;5004777;28;20093;-49
2022/12/06 08:50:19;;;;;;;12.73;4.57;;;;;;;;;;5003190;28;20045;-49
2022/12/06 08:52:46;;;;;;;12.45;4.13;;;;;;;;;;4999679;28;20502;-47
2022/12/06 08:55:12;;;;;;;8.75;4.13;;;;;;;;;;5002095;28;20042;-47
2022/12/06 08:57:38;;;;;;;8.38;4.20;;;;;;;;;;5006292;28;20780;-49
2022/12/06 09:00:05;;;;;;;12.13;5.25;;;3.20;99.90;;;;;;5002950;28;20049;-49
2022/12/06 09:02:32;;;;;;;7.90;3.95;;;;;;;;;;5001945;28;20986;-48
2022/12/06 09:04:58;;;;;;;10.15;4.60;;;;;;;;;;4999735;28;20064;-47
2022/12/06 09:07:25;;;;;;;7.90;3.67;;;;;;;;;;5003475;28;20138;-47
2022/12/06 09:09:53;;;;;;;6.50;4.13;;;3.40;99.90;;;;;;5007317;28;20102;-48
2022/12/06 09:12:19;;;;;;;7.68;4.40;;;;;;;;;;5004423;28;20581;-48
2022/12/06 09:14:45;;;;;;;13.40;4.93;;;;;;;;;;5004946;28;20884;-47
2022/12/06 09:17:11;;;;;;;12.88;4.53;;;;;;;;;;5003494;28;20124;-46
2022/12/06 09:19:37;;;;;;;8.30;3.88;;;;;;;;;;5001336;28;20044;-48
2022/12/06 09:22:04;;;;;;;10.73;4.85;;;;;;;;;;5000941;28;20062;-46
2022/12/06 09:24:30;;;;;;;8.35;4.05;;;;;;;;;;5002956;28;20041;-47
2022/12/06 09:26:56;;;;;;;11.35;4.65;;;;;;;;;;5007163;28;20398;-46
2022/12/06 09:29:22;;;;;;;9.60;4.00;;;;;;;;;;5000835;28;20045;-48
2022/12/06 09:31:48;;;;;;;9.77;3.63;;;;;;;;;;4998061;28;20125;-48
2022/12/06 09:34:15;;;;;;;7.20;3.65;;;;;;;;;;4999302;28;20058;-47
2022/12/06 09:36:49;;;;;;;10.95;3.15;;;3.90;99.90;;;;;;4999874;28;20052;-47
2022/12/06 09:39:20;;;;;;;11.32;3.33;;;3.90;99.90;;;;;;4999139;28;20144;-48
2022/12/06 09:42:07;;;;;;;7.93;3.35;;;4.10;99.90;;;;;;5005771;28;20128;-49
2022/12/06 09:44:59;;;;;;;17.10;4.00;;;4.30;99.90;;;;;;5001478;28;20034;-48
2022/12/06 09:47:58;;;;;;;14.97;4.07;;;4.80;99.90;;;;;;5001323;28;20041;-47
2022/12/06 09:50:48;;;;;;;12.55;3.80;;;6.20;99.90;;;;;;5003805;28;20042;-48
2022/12/06 09:53:20;;;;;;;7.88;4.00;;;7.00;99.90;;;;;;5002770;28;20136;-47
2022/12/06 09:55:55;;;;;;;7.15;3.35;;;7.40;99.90;;;;;;5002557;28;20050;-48
2022/12/06 09:58:31;;;;;;;8.82;3.00;;;8.20;99.90;;;;;;5005669;28;20049;-48
2022/12/06 10:01:20;;;;;;;8.82;2.50;;;8.80;99.90;;;;;;5002388;28;20058;-49
2022/12/06 10:03:59;;;;;;;4.47;2.17;;;9.00;99.90;;;;;;4991097;28;20045;-50
2022/12/06 10:06:35;;;;;;;6.70;2.03;;;9.00;99.90;;;;;;5009010;28;20046;-48
2022/12/06 10:09:31;;;;;;;7.68;2.20;;;8.80;99.90;;;;;;5005401;28;20041;-47
2022/12/06 10:12:25;;;;;;;9.13;2.28;;;7.70;99.90;;;;;;5004192;28;20055;-48
2022/12/06 10:15:14;;;;;;;5.72;1.80;;;7.60;99.90;;;;;;5004819;28;20469;-48
2022/12/06 10:17:50;;;;;;;6.90;1.92;;;6.80;99.90;;;;;;5006920;28;20064;-50
2022/12/06 10:20:33;;;;;;;4.80;2.15;;;6.50;99.90;;;;;;5001470;28;20053;-48
2022/12/06 10:22:59;;;;;;;6.78;2.03;;;6.60;99.90;;;;;;5009899;28;20037;-47
2022/12/06 10:25:35;;;;;;;7.95;2.22;;;6.20;99.90;;;;;;5005402;28;20852;-47
2022/12/06 10:28:17;;;;;;;6.55;2.20;;;6.00;99.90;;;;;;5006939;28;20041;-46
2022/12/06 10:30:58;;;;;;;5.63;1.98;;;5.90;99.90;;;;;;5002449;28;20050;-47
2022/12/06 10:33:33;;;;;;;6.50;2.20;;;5.70;99.90;;;;;;5004409;28;20389;-46
2022/12/06 10:36:05;;;;;;;9.55;1.90;;;5.60;99.90;;;;;;5008636;28;20580;-47
2022/12/06 10:38:54;;;;;;;9.05;1.98;;;5.50;99.90;;;;;;5005186;28;20041;-47
2022/12/06 10:41:52;;;;;;;4.88;2.10;;;5.60;99.90;;;;;;4999580;28;20111;-47
2022/12/06 10:44:26;;;;;;;5.95;2.28;;;5.70;99.90;;;;;;4987963;28;20057;-46
2022/12/06 10:47:03;;;;;;;5.13;2.22;;;5.90;99.90;;;;;;5008212;28;20100;-48
2022/12/06 10:49:35;;;;;;;7.20;3.10;;;6.00;99.90;;;;;;5006662;28;20042;-47
2022/12/06 10:52:19;;;;;;;7.70;2.50;;;5.90;99.90;;;;;;5006146;28;21028;-47
2022/12/06 10:55:13;;;;;;;6.00;1.90;;;6.20;99.90;;;;;;4999669;28;20042;-47
2022/12/06 10:58:05;;;;;;;6.78;2.05;;;6.10;99.90;;;;;;5004699;28;20045;-48
2022/12/06 11:00:39;;;;;;;4.68;2.25;;;6.10;99.90;;;;;;5005867;28;20465;-47
2022/12/06 11:03:25;;;;;;;6.93;1.75;;;6.20;99.90;;;;;;5006334;28;21167;-51
2022/12/06 11:06:00;;;;;;;5.10;2.05;;;6.10;99.90;;;;;;5001855;28;20037;-47
2022/12/06 11:08:32;;;;;;;8.55;4.80;;;6.10;99.90;;;;;;5004381;28;20045;-47
2022/12/06 11:10:59;;;;;;;7.68;2.97;;;6.30;99.90;;;;;;5004573;28;20519;-47
2022/12/06 11:13:33;;;;;;;14.15;8.35;;;6.00;99.90;;;;;;5002962;28;20041;-47
2022/12/06 11:16:14;;;;;;;10.45;4.28;;;6.00;99.90;;;;;;5004917;28;20175;-49
2022/12/06 11:18:41;;;;;;;9.48;5.07;;;6.10;99.90;;;;;;5001199;28;20045;-47
2022/12/06 11:21:29;;;;;;;8.45;4.35;;;6.20;99.90;;;;;;4999274;28;20073;-49
2022/12/06 11:24:21;;;;;;;8.68;4.13;;;6.20;99.90;;;;;;5006392;28;20082;-50
2022/12/06 11:26:50;;;;;;;;;;;6.10;99.90;;;;;;5002771;28;20402;-48
2022/12/06 11:29:17;;;;;;;8.98;2.60;;;;;;;;;;5001047;28;19929;-48
2022/12/06 11:31:58;;;;;;;7.53;2.60;;;6.10;99.90;;;;;;5003014;28;20041;-48
2022/12/06 11:34:47;;;;;;;8.10;3.70;;;6.10;99.90;;;;;;5004459;28;20037;-49
2022/12/06 11:37:19;;;;;;;5.03;1.85;;;6.00;99.90;;;;;;5006525;28;20057;-47
2022/12/06 11:39:47;;;;;;;7.15;2.90;;;6.10;99.90;;;;;;5006882;28;20513;-47
2022/12/06 11:42:20;;;;;;;5.65;1.95;;;6.20;99.90;;;;;;5006390;28;20538;-49
2022/12/06 11:44:53;;;;;;;7.78;2.45;;;6.00;99.90;;;;;;5002562;28;20045;-46
2022/12/06 11:47:21;;;;;;;8.57;3.00;;;6.00;99.90;;;;;;4999602;28;20103;-50
2022/12/06 11:49:49;;;;;;;9.07;4.30;;;6.00;99.90;;;;;;5005547;28;20073;-50
2022/12/06 11:52:36;;;;;;;4.75;2.60;;;5.80;99.90;;;;;;5004594;28;20042;-47
2022/12/06 11:55:15;;;;;;;12.77;5.20;;;5.90;99.90;;;;;;5003496;28;20038;-48
2022/12/06 11:57:51;;;;;;;7.85;2.55;;;6.00;99.90;;;;;;5001680;28;20113;-50
2022/12/06 12:00:25;;;;;;;6.90;3.20;;;6.00;99.90;;;;;;5001756;28;20068;-48
2022/12/06 12:02:54;;;;;;;7.05;3.38;;;6.10;99.90;;;;;;5003782;28;20414;-47
2022/12/06 12:05:23;;;;;;;9.18;3.13;;;6.00;99.90;;;;;;5006629;28;20492;-48
2022/12/06 12:08:01;;;;;;;11.40;3.33;;;6.20;99.90;;;;;;5006595;28;20057;-52
2022/12/06 12:10:29;;;;;;;8.32;2.45;;;6.20;99.90;;;;;;4999908;28;20418;-46
2022/12/06 12:15:49;;;;;;;5.35;1.98;;;6.10;99.90;;;;;;5004781;28;20042;-47
2022/12/06 12:18:35;;;;;;;8.60;3.33;;;6.20;99.90;;;;;;5002112;28;20081;-48
2022/12/06 12:21:04;;;;;;;6.60;2.97;;;6.20;99.90;;;;;;5007467;28;20077;-46
2022/12/06 12:23:46;;;;;;;9.68;2.47;;;6.30;99.90;;;;;;5005044;28;20036;-51
2022/12/06 12:26:18;;;;;;;7.72;3.15;;;6.20;99.90;;;;;;4999304;28;20858;-48
2022/12/06 12:29:00;;;;;;;5.13;2.05;;;6.30;99.90;;;;;;4998918;28;20053;-48
2022/12/06 12:31:26;;;;;;;6.60;3.58;;;6.40;99.90;;;;;;4994844;28;20505;-47
2022/12/06 12:34:25;;;;;;;6.55;2.67;;;6.40;99.90;;;;;;4998865;28;20038;-47
2022/12/06 12:36:57;;;;;;;8.48;2.88;;;6.30;99.90;;;;;;4993197;28;20552;-47
2022/12/06 12:39:39;;;;;;;;;;;5.10;99.90;;;;;;5002243;28;20474;-47
2022/12/06 12:42:33;;;;;;;11.23;3.22;;;6.30;99.90;;;;;;4998942;28;20177;-49
2022/12/06 12:45:03;;;;;;;7.20;2.35;;;6.30;99.90;;;;;;5001438;28;20411;-50
2022/12/06 12:47:31;;;;;;;7.70;2.63;;;6.40;99.90;;;;;;5000961;28;20037;-47
2022/12/06 12:50:19;;;;;;;9.88;2.20;;;6.50;99.90;;;;;;4998173;28;20077;-46
2022/12/06 12:52:45;;;;;;;9.00;2.90;;;6.30;99.90;;;;;;4998046;28;20120;-47
2022/12/06 12:55:14;;;;;;;6.45;2.55;;;6.30;99.90;;;;;;5000870;28;20065;-48
2022/12/06 12:57:41;;;;;;;7.35;3.08;;;8.00;99.90;;;;;;4998971;28;20183;-50
2022/12/06 13:00:17;;;;;;;12.10;3.63;;;6.30;99.90;;;;;;5003526;28;20087;-52
2022/12/06 13:02:49;;;;;;;16.73;11.32;;;6.30;99.90;;;;;;5002693;28;20132;-51
2022/12/06 13:05:28;;;;;;;8.88;3.20;;;6.40;99.90;;;;;;5000874;28;20502;-50
2022/12/06 13:08:09;;;;;;;9.02;3.45;;;6.40;99.90;;;;;;5004462;28;20104;-49
2022/12/06 13:10:37;;;;;;;7.25;2.67;;;6.30;99.90;;;;;;4994106;28;20072;-50
2022/12/06 13:13:13;;;;;;;7.32;2.40;;;6.50;99.90;;;;;;5004519;28;20038;-51
2022/12/06 13:15:49;;;;;;;8.20;2.80;;;6.60;99.90;;;;;;4997412;28;20107;-51
2022/12/06 13:18:36;;;;;;;10.70;5.28;;;6.60;99.90;;;;;;5001385;28;20180;-47
2022/12/06 13:21:19;;;;;;;9.25;4.28;;;6.90;99.90;;;;;;5008225;28;20525;-50
2022/12/06 13:23:49;;;;;;;9.68;3.17;;;6.70;99.90;;;;;;5004227;28;20152;-46
2022/12/06 13:26:35;;;;;;;7.85;2.80;;;6.80;99.90;;;;;;5009976;28;20761;-48
2022/12/06 13:29:30;;;;;;;6.95;1.92;;;6.70;99.90;;;;;;5010523;28;20041;-48
2022/12/06 13:31:59;;;;;;;7.38;1.98;;;6.50;99.90;;;;;;5008390;28;20041;-49
2022/12/06 13:34:33;;;;;;;6.72;2.30;;;6.60;99.90;;;;;;5006486;28;20494;-50
2022/12/06 13:37:00;;;;;;;9.10;2.22;;;6.50;99.90;;;;;;5010323;28;20530;-46
2022/12/06 13:39:31;;;;;;;8.07;2.70;;;6.50;99.90;;;;;;5006573;28;20129;-48
2022/12/06 13:42:18;;;;;;;8.65;3.92;;;6.50;99.90;;;;;;5004479;28;20046;-47
2022/12/06 13:44:47;;;;;;;10.75;4.50;;;6.30;99.90;;;;;;5001403;28;20045;-49
2022/12/06 13:47:32;;;;;;;7.63;2.60;;;6.60;99.90;;;;;;5006462;28;20169;-50
2022/12/06 13:50:00;;;;;;;8.90;3.97;;;6.30;99.90;;;;;;5000591;28;21135;-48
2022/12/06 13:52:41;;;;;;;13.35;3.65;;;6.30;99.90;;;;;;5005142;28;20052;-47
2022/12/06 13:55:25;;;;;;;9.65;3.97;;;6.30;99.90;;;;;;5004579;28;20057;-50
2022/12/06 13:58:11;;;;;;;8.23;2.70;;;6.40;99.90;;;;;;5007828;28;20084;-47
2022/12/06 14:00:46;;;;;;;8.00;3.53;;;6.40;99.90;;;;;;5006226;28;20042;-47
2022/12/06 14:03:15;;;;;;;11.30;5.30;;;6.40;99.90;;;;;;5007411;28;20053;-47
2022/12/06 14:05:59;;;;;;;11.10;3.95;;;6.40;99.90;;;;;;5007439;28;20076;-47
2022/12/06 14:09:00;;;;;;;5.30;2.42;;;6.30;99.90;;;;;;5007253;28;20073;-49
2022/12/06 14:11:28;;;;;;;6.60;2.38;;;6.40;99.90;;;;;;4980060;28;20410;-49
2022/12/06 14:13:54;;;;;;;5.32;2.13;;;6.20;99.90;;;;;;5002257;28;20038;-48
2022/12/06 14:16:51;;;;;;;7.80;3.30;;;6.20;99.90;;;;;;5008918;28;20059;-46
2022/12/06 14:19:39;;;;;;;5.93;1.95;;;6.30;99.90;;;;;;5004369;28;20649;-46
2022/12/06 14:22:22;;;;;;;7.25;3.53;;;6.30;99.90;;;;;;5006067;28;20041;-51